sensor_id;sensor_type;location;lat;lon;timestamp;P1;durP1;ratioP1;P2;durP2;ratioP2
56043;SDS011;41912;51.022;3.664;2024-03-06T00:02:05;12.50;;;9.18;;
56043;SDS011;41912;51.022;3.664;2024-03-06T00:04:31;16.08;;;9.90;;
56043;SDS011;41912;51.022;3.664;2024-03-06T00:07:00;16.08;;;9.13;;
56043;SDS011;41912;51.022;3.664;2024-03-06T00:09:26;16.55;;;10.27;;
56043;SDS011;41912;51.022;3.664;2024-03-06T00:11:52;15.38;;;9.90;;
56043;SDS011;41912;51.022;3.664;2024-03-06T00:14:19;18.20;;;9.82;;
56043;SDS011;41912;51.022;3.664;2024-03-06T00:16:46;16.85;;;9.05;;
56043;SDS011;41912;51.022;3.664;2024-03-06T00:19:13;15.65;;;9.95;;
56043;SDS011;41912;51.022;3.664;2024-03-06T00:21:38;17.00;;;9.73;;
56043;SDS011;41912;51.022;3.664;2024-03-06T00:24:04;13.55;;;8.60;;
56043;SDS011;41912;51.022;3.664;2024-03-06T00:26:30;13.57;;;9.63;;
56043;SDS011;41912;51.022;3.664;2024-03-06T00:28:56;13.20;;;9.07;;
56043;SDS011;41912;51.022;3.664;2024-03-06T00:31:22;14.93;;;9.23;;
56043;SDS011;41912;51.022;3.664;2024-03-06T00:33:47;14.52;;;8.95;;
56043;SDS011;41912;51.022;3.664;2024-03-06T00:36:13;17.98;;;9.43;;
56043;SDS011;41912;51.022;3.664;2024-03-06T00:38:39;10.27;;;7.53;;
56043;SDS011;41912;51.022;3.664;2024-03-06T00:41:05;13.80;;;8.68;;
56043;SDS011;41912;51.022;3.664;2024-03-06T00:43:31;12.02;;;8.88;;
56043;SDS011;41912;51.022;3.664;2024-03-06T00:45:56;17.20;;;9.57;;
56043;SDS011;41912;51.022;3.664;2024-03-06T00:48:22;15.52;;;9.73;;
56043;SDS011;41912;51.022;3.664;2024-03-06T00:50:48;16.25;;;9.07;;
56043;SDS011;41912;51.022;3.664;2024-03-06T00:53:14;19.65;;;9.10;;
56043;SDS011;41912;51.022;3.664;2024-03-06T00:55:39;15.20;;;8.85;;
56043;SDS011;41912;51.022;3.664;2024-03-06T00:58:05;15.10;;;9.27;;
56043;SDS011;41912;51.022;3.664;2024-03-06T01:00:34;14.02;;;9.18;;
56043;SDS011;41912;51.022;3.664;2024-03-06T01:02:59;13.18;;;9.38;;
56043;SDS011;41912;51.022;3.664;2024-03-06T01:05:25;16.30;;;8.63;;
56043;SDS011;41912;51.022;3.664;2024-03-06T01:07:51;14.98;;;9.02;;
56043;SDS011;41912;51.022;3.664;2024-03-06T01:10:17;15.43;;;9.25;;
56043;SDS011;41912;51.022;3.664;2024-03-06T01:12:42;13.07;;;9.13;;
56043;SDS011;41912;51.022;3.664;2024-03-06T01:15:10;13.52;;;8.38;;
56043;SDS011;41912;51.022;3.664;2024-03-06T01:17:36;12.43;;;9.25;;
56043;SDS011;41912;51.022;3.664;2024-03-06T01:20:02;15.20;;;9.25;;
56043;SDS011;41912;51.022;3.664;2024-03-06T01:22:31;15.40;;;9.32;;
56043;SDS011;41912;51.022;3.664;2024-03-06T01:24:58;12.32;;;8.90;;
56043;SDS011;41912;51.022;3.664;2024-03-06T01:27:24;11.32;;;9.25;;
56043;SDS011;41912;51.022;3.664;2024-03-06T01:29:50;10.88;;;8.80;;
56043;SDS011;41912;51.022;3.664;2024-03-06T01:32:16;12.43;;;8.20;;
56043;SDS011;41912;51.022;3.664;2024-03-06T01:34:41;10.55;;;7.68;;
56043;SDS011;41912;51.022;3.664;2024-03-06T01:37:07;9.98;;;6.78;;
56043;SDS011;41912;51.022;3.664;2024-03-06T01:39:33;9.60;;;7.65;;
56043;SDS011;41912;51.022;3.664;2024-03-06T01:42:00;9.57;;;7.97;;
56043;SDS011;41912;51.022;3.664;2024-03-06T01:44:26;10.75;;;7.50;;
56043;SDS011;41912;51.022;3.664;2024-03-06T01:46:52;8.15;;;7.07;;
56043;SDS011;41912;51.022;3.664;2024-03-06T01:49:17;8.82;;;6.68;;
56043;SDS011;41912;51.022;3.664;2024-03-06T01:51:45;7.50;;;6.20;;
56043;SDS011;41912;51.022;3.664;2024-03-06T01:54:14;10.48;;;6.10;;
56043;SDS011;41912;51.022;3.664;2024-03-06T01:56:44;8.98;;;7.22;;
56043;SDS011;41912;51.022;3.664;2024-03-06T01:59:13;10.40;;;6.75;;
56043;SDS011;41912;51.022;3.664;2024-03-06T02:01:41;10.13;;;7.50;;
56043;SDS011;41912;51.022;3.664;2024-03-06T02:04:08;11.07;;;8.32;;
56043;SDS011;41912;51.022;3.664;2024-03-06T02:06:38;10.93;;;7.32;;
56043;SDS011;41912;51.022;3.664;2024-03-06T02:09:04;10.43;;;7.95;;
56043;SDS011;41912;51.022;3.664;2024-03-06T02:11:31;10.48;;;8.05;;
56043;SDS011;41912;51.022;3.664;2024-03-06T02:13:57;12.07;;;8.27;;
56043;SDS011;41912;51.022;3.664;2024-03-06T02:16:23;11.07;;;7.40;;
56043;SDS011;41912;51.022;3.664;2024-03-06T02:18:53;14.95;;;7.53;;
56043;SDS011;41912;51.022;3.664;2024-03-06T02:21:23;11.05;;;8.02;;
56043;SDS011;41912;51.022;3.664;2024-03-06T02:23:50;10.35;;;8.00;;
56043;SDS011;41912;51.022;3.664;2024-03-06T02:26:17;11.77;;;8.32;;
56043;SDS011;41912;51.022;3.664;2024-03-06T02:28:50;11.85;;;7.25;;
56043;SDS011;41912;51.022;3.664;2024-03-06T02:31:16;9.77;;;7.65;;
56043;SDS011;41912;51.022;3.664;2024-03-06T02:33:43;11.75;;;7.80;;
56043;SDS011;41912;51.022;3.664;2024-03-06T02:36:10;10.50;;;7.38;;
56043;SDS011;41912;51.022;3.664;2024-03-06T02:38:36;11.70;;;7.40;;
56043;SDS011;41912;51.022;3.664;2024-03-06T02:41:02;10.15;;;8.13;;
56043;SDS011;41912;51.022;3.664;2024-03-06T02:43:28;11.52;;;8.50;;
56043;SDS011;41912;51.022;3.664;2024-03-06T02:45:53;11.32;;;7.22;;
56043;SDS011;41912;51.022;3.664;2024-03-06T02:48:19;10.38;;;7.60;;
56043;SDS011;41912;51.022;3.664;2024-03-06T02:50:45;11.80;;;7.57;;
56043;SDS011;41912;51.022;3.664;2024-03-06T02:53:14;9.75;;;7.57;;
56043;SDS011;41912;51.022;3.664;2024-03-06T02:55:39;10.32;;;8.07;;
56043;SDS011;41912;51.022;3.664;2024-03-06T02:58:08;10.75;;;8.13;;
56043;SDS011;41912;51.022;3.664;2024-03-06T03:00:33;10.13;;;7.60;;
56043;SDS011;41912;51.022;3.664;2024-03-06T03:02:59;11.25;;;8.25;;
56043;SDS011;41912;51.022;3.664;2024-03-06T03:05:29;10.00;;;7.07;;
56043;SDS011;41912;51.022;3.664;2024-03-06T03:07:55;10.20;;;7.60;;
56043;SDS011;41912;51.022;3.664;2024-03-06T03:10:21;12.80;;;9.02;;
56043;SDS011;41912;51.022;3.664;2024-03-06T03:12:51;11.35;;;8.63;;
56043;SDS011;41912;51.022;3.664;2024-03-06T03:15:17;13.95;;;8.73;;
56043;SDS011;41912;51.022;3.664;2024-03-06T03:17:46;11.95;;;8.30;;
56043;SDS011;41912;51.022;3.664;2024-03-06T03:20:11;12.82;;;7.80;;
56043;SDS011;41912;51.022;3.664;2024-03-06T03:22:42;12.57;;;8.63;;
56043;SDS011;41912;51.022;3.664;2024-03-06T03:27:42;12.45;;;8.52;;
56043;SDS011;41912;51.022;3.664;2024-03-06T03:30:10;10.32;;;8.23;;
56043;SDS011;41912;51.022;3.664;2024-03-06T03:33:00;14.95;;;8.13;;
56043;SDS011;41912;51.022;3.664;2024-03-06T03:35:29;15.50;;;8.13;;
56043;SDS011;41912;51.022;3.664;2024-03-06T03:37:58;11.00;;;7.60;;
56043;SDS011;41912;51.022;3.664;2024-03-06T03:40:24;8.38;;;7.25;;
56043;SDS011;41912;51.022;3.664;2024-03-06T03:42:49;10.77;;;6.78;;
56043;SDS011;41912;51.022;3.664;2024-03-06T03:45:15;11.55;;;7.43;;
56043;SDS011;41912;51.022;3.664;2024-03-06T03:47:41;11.13;;;7.95;;
56043;SDS011;41912;51.022;3.664;2024-03-06T03:50:08;12.52;;;8.45;;
56043;SDS011;41912;51.022;3.664;2024-03-06T03:52:34;14.07;;;9.10;;
56043;SDS011;41912;51.022;3.664;2024-03-06T03:55:00;12.80;;;8.55;;
56043;SDS011;41912;51.022;3.664;2024-03-06T03:57:26;12.98;;;7.35;;
56043;SDS011;41912;51.022;3.664;2024-03-06T03:59:52;11.32;;;7.50;;
56043;SDS011;41912;51.022;3.664;2024-03-06T04:02:18;9.60;;;6.18;;
56043;SDS011;41912;51.022;3.664;2024-03-06T04:04:45;7.25;;;5.70;;
56043;SDS011;41912;51.022;3.664;2024-03-06T04:07:11;9.07;;;7.00;;
56043;SDS011;41912;51.022;3.664;2024-03-06T04:09:38;8.40;;;7.00;;
56043;SDS011;41912;51.022;3.664;2024-03-06T04:12:05;9.95;;;7.63;;
56043;SDS011;41912;51.022;3.664;2024-03-06T04:14:31;10.52;;;7.13;;
56043;SDS011;41912;51.022;3.664;2024-03-06T04:16:57;9.98;;;7.65;;
56043;SDS011;41912;51.022;3.664;2024-03-06T04:19:31;10.13;;;7.75;;
56043;SDS011;41912;51.022;3.664;2024-03-06T04:21:57;9.57;;;7.13;;
56043;SDS011;41912;51.022;3.664;2024-03-06T04:24:22;10.80;;;8.55;;
56043;SDS011;41912;51.022;3.664;2024-03-06T04:26:48;11.50;;;8.13;;
56043;SDS011;41912;51.022;3.664;2024-03-06T04:29:14;9.55;;;7.32;;
56043;SDS011;41912;51.022;3.664;2024-03-06T04:31:40;9.75;;;7.63;;
56043;SDS011;41912;51.022;3.664;2024-03-06T04:34:06;9.38;;;8.02;;
56043;SDS011;41912;51.022;3.664;2024-03-06T04:36:32;12.23;;;8.25;;
56043;SDS011;41912;51.022;3.664;2024-03-06T04:38:57;11.38;;;8.18;;
56043;SDS011;41912;51.022;3.664;2024-03-06T04:41:23;14.15;;;8.15;;
56043;SDS011;41912;51.022;3.664;2024-03-06T04:43:48;11.00;;;8.15;;
56043;SDS011;41912;51.022;3.664;2024-03-06T04:46:16;11.95;;;8.63;;
56043;SDS011;41912;51.022;3.664;2024-03-06T04:48:41;11.18;;;7.65;;
56043;SDS011;41912;51.022;3.664;2024-03-06T04:51:11;9.80;;;7.80;;
56043;SDS011;41912;51.022;3.664;2024-03-06T04:53:37;12.38;;;7.93;;
56043;SDS011;41912;51.022;3.664;2024-03-06T04:56:03;11.35;;;8.48;;
56043;SDS011;41912;51.022;3.664;2024-03-06T04:58:29;11.65;;;8.02;;
56043;SDS011;41912;51.022;3.664;2024-03-06T05:00:54;12.43;;;7.75;;
56043;SDS011;41912;51.022;3.664;2024-03-06T05:03:20;12.77;;;7.93;;
56043;SDS011;41912;51.022;3.664;2024-03-06T05:05:46;14.85;;;8.73;;
56043;SDS011;41912;51.022;3.664;2024-03-06T05:08:11;9.60;;;7.43;;
56043;SDS011;41912;51.022;3.664;2024-03-06T05:10:37;10.48;;;7.30;;
56043;SDS011;41912;51.022;3.664;2024-03-06T05:13:03;11.93;;;7.15;;
56043;SDS011;41912;51.022;3.664;2024-03-06T05:15:28;12.32;;;7.70;;
56043;SDS011;41912;51.022;3.664;2024-03-06T05:17:54;13.80;;;7.57;;
56043;SDS011;41912;51.022;3.664;2024-03-06T05:20:21;12.45;;;7.90;;
56043;SDS011;41912;51.022;3.664;2024-03-06T05:22:46;10.45;;;7.68;;
56043;SDS011;41912;51.022;3.664;2024-03-06T05:25:12;13.55;;;8.85;;
56043;SDS011;41912;51.022;3.664;2024-03-06T05:27:38;16.30;;;9.18;;
56043;SDS011;41912;51.022;3.664;2024-03-06T05:30:04;11.57;;;8.43;;
56043;SDS011;41912;51.022;3.664;2024-03-06T05:32:30;12.23;;;9.02;;
56043;SDS011;41912;51.022;3.664;2024-03-06T05:34:56;11.80;;;8.50;;
56043;SDS011;41912;51.022;3.664;2024-03-06T05:37:23;14.20;;;9.10;;
56043;SDS011;41912;51.022;3.664;2024-03-06T05:39:48;15.25;;;8.57;;
56043;SDS011;41912;51.022;3.664;2024-03-06T05:42:14;13.90;;;9.50;;
56043;SDS011;41912;51.022;3.664;2024-03-06T05:44:40;13.48;;;8.50;;
56043;SDS011;41912;51.022;3.664;2024-03-06T05:47:05;12.07;;;8.68;;
56043;SDS011;41912;51.022;3.664;2024-03-06T05:49:32;11.55;;;8.68;;
56043;SDS011;41912;51.022;3.664;2024-03-06T05:51:58;14.38;;;9.32;;
56043;SDS011;41912;51.022;3.664;2024-03-06T05:54:24;15.65;;;9.80;;
56043;SDS011;41912;51.022;3.664;2024-03-06T05:56:50;13.45;;;9.45;;
56043;SDS011;41912;51.022;3.664;2024-03-06T05:59:17;13.93;;;9.45;;
56043;SDS011;41912;51.022;3.664;2024-03-06T06:01:43;14.77;;;9.73;;
56043;SDS011;41912;51.022;3.664;2024-03-06T06:04:10;13.43;;;8.75;;
56043;SDS011;41912;51.022;3.664;2024-03-06T06:06:39;21.20;;;12.65;;
56043;SDS011;41912;51.022;3.664;2024-03-06T06:09:06;17.52;;;11.45;;
56043;SDS011;41912;51.022;3.664;2024-03-06T06:11:41;16.70;;;12.25;;
56043;SDS011;41912;51.022;3.664;2024-03-06T06:14:08;17.85;;;11.25;;
56043;SDS011;41912;51.022;3.664;2024-03-06T06:16:35;17.67;;;11.63;;
56043;SDS011;41912;51.022;3.664;2024-03-06T06:19:06;15.90;;;10.48;;
56043;SDS011;41912;51.022;3.664;2024-03-06T06:21:31;16.98;;;10.45;;
56043;SDS011;41912;51.022;3.664;2024-03-06T06:23:58;18.13;;;10.90;;
56043;SDS011;41912;51.022;3.664;2024-03-06T06:26:24;18.10;;;11.05;;
56043;SDS011;41912;51.022;3.664;2024-03-06T06:28:49;16.25;;;10.00;;
56043;SDS011;41912;51.022;3.664;2024-03-06T06:31:15;16.83;;;11.65;;
56043;SDS011;41912;51.022;3.664;2024-03-06T06:33:41;15.38;;;10.35;;
56043;SDS011;41912;51.022;3.664;2024-03-06T06:36:06;17.92;;;10.88;;
56043;SDS011;41912;51.022;3.664;2024-03-06T06:38:32;15.57;;;10.60;;
56043;SDS011;41912;51.022;3.664;2024-03-06T06:40:58;17.90;;;11.10;;
56043;SDS011;41912;51.022;3.664;2024-03-06T06:43:23;17.58;;;11.10;;
56043;SDS011;41912;51.022;3.664;2024-03-06T06:45:49;17.80;;;11.50;;
56043;SDS011;41912;51.022;3.664;2024-03-06T06:48:15;17.83;;;11.00;;
56043;SDS011;41912;51.022;3.664;2024-03-06T06:50:41;16.35;;;10.60;;
56043;SDS011;41912;51.022;3.664;2024-03-06T06:53:07;18.33;;;11.32;;
56043;SDS011;41912;51.022;3.664;2024-03-06T06:55:32;18.70;;;12.40;;
56043;SDS011;41912;51.022;3.664;2024-03-06T06:57:58;20.90;;;13.00;;
56043;SDS011;41912;51.022;3.664;2024-03-06T07:00:24;20.48;;;11.82;;
56043;SDS011;41912;51.022;3.664;2024-03-06T07:02:50;20.50;;;12.88;;
56043;SDS011;41912;51.022;3.664;2024-03-06T07:05:16;17.63;;;11.65;;
56043;SDS011;41912;51.022;3.664;2024-03-06T07:07:41;17.50;;;11.80;;
56043;SDS011;41912;51.022;3.664;2024-03-06T07:10:07;19.77;;;12.18;;
56043;SDS011;41912;51.022;3.664;2024-03-06T07:12:33;18.58;;;12.10;;
56043;SDS011;41912;51.022;3.664;2024-03-06T07:15:00;19.75;;;13.05;;
56043;SDS011;41912;51.022;3.664;2024-03-06T07:17:25;20.35;;;12.77;;
56043;SDS011;41912;51.022;3.664;2024-03-06T07:19:51;17.25;;;11.38;;
56043;SDS011;41912;51.022;3.664;2024-03-06T07:22:18;19.73;;;12.40;;
56043;SDS011;41912;51.022;3.664;2024-03-06T07:24:44;17.50;;;11.70;;
56043;SDS011;41912;51.022;3.664;2024-03-06T07:27:09;16.00;;;11.10;;
56043;SDS011;41912;51.022;3.664;2024-03-06T07:29:36;16.88;;;11.70;;
56043;SDS011;41912;51.022;3.664;2024-03-06T07:32:01;17.13;;;11.75;;
56043;SDS011;41912;51.022;3.664;2024-03-06T07:34:28;17.65;;;11.77;;
56043;SDS011;41912;51.022;3.664;2024-03-06T07:36:54;16.77;;;12.02;;
56043;SDS011;41912;51.022;3.664;2024-03-06T07:39:19;18.40;;;13.00;;
56043;SDS011;41912;51.022;3.664;2024-03-06T07:41:45;25.75;;;12.48;;
56043;SDS011;41912;51.022;3.664;2024-03-06T07:44:11;17.58;;;11.60;;
56043;SDS011;41912;51.022;3.664;2024-03-06T07:46:37;17.10;;;12.25;;
56043;SDS011;41912;51.022;3.664;2024-03-06T07:49:03;16.95;;;12.57;;
56043;SDS011;41912;51.022;3.664;2024-03-06T07:51:30;19.20;;;12.95;;
56043;SDS011;41912;51.022;3.664;2024-03-06T07:53:56;30.08;;;14.48;;
56043;SDS011;41912;51.022;3.664;2024-03-06T07:56:22;21.52;;;13.68;;
56043;SDS011;41912;51.022;3.664;2024-03-06T07:58:48;21.20;;;13.77;;
56043;SDS011;41912;51.022;3.664;2024-03-06T08:01:14;23.75;;;15.45;;
56043;SDS011;41912;51.022;3.664;2024-03-06T08:03:40;28.58;;;18.48;;
56043;SDS011;41912;51.022;3.664;2024-03-06T08:06:08;38.08;;;23.38;;
56043;SDS011;41912;51.022;3.664;2024-03-06T08:08:34;36.30;;;22.02;;
56043;SDS011;41912;51.022;3.664;2024-03-06T08:11:05;35.80;;;23.15;;
56043;SDS011;41912;51.022;3.664;2024-03-06T08:13:31;37.90;;;22.90;;
56043;SDS011;41912;51.022;3.664;2024-03-06T08:15:56;42.28;;;24.42;;
56043;SDS011;41912;51.022;3.664;2024-03-06T08:18:22;47.97;;;26.63;;
56043;SDS011;41912;51.022;3.664;2024-03-06T08:20:48;46.80;;;27.35;;
56043;SDS011;41912;51.022;3.664;2024-03-06T08:23:13;50.20;;;27.50;;
56043;SDS011;41912;51.022;3.664;2024-03-06T08:25:39;52.15;;;29.35;;
56043;SDS011;41912;51.022;3.664;2024-03-06T08:28:05;49.45;;;26.83;;
56043;SDS011;41912;51.022;3.664;2024-03-06T08:30:31;52.63;;;28.27;;
56043;SDS011;41912;51.022;3.664;2024-03-06T08:32:57;50.65;;;28.92;;
56043;SDS011;41912;51.022;3.664;2024-03-06T08:35:23;51.00;;;27.65;;
56043;SDS011;41912;51.022;3.664;2024-03-06T08:37:49;52.42;;;29.05;;
56043;SDS011;41912;51.022;3.664;2024-03-06T08:40:15;51.42;;;28.65;;
56043;SDS011;41912;51.022;3.664;2024-03-06T08:42:49;64.22;;;32.28;;
56043;SDS011;41912;51.022;3.664;2024-03-06T08:45:15;66.28;;;31.20;;
56043;SDS011;41912;51.022;3.664;2024-03-06T08:47:42;59.92;;;28.88;;
56043;SDS011;41912;51.022;3.664;2024-03-06T08:50:09;60.28;;;29.48;;
56043;SDS011;41912;51.022;3.664;2024-03-06T08:52:35;60.95;;;31.58;;
56043;SDS011;41912;51.022;3.664;2024-03-06T08:55:02;57.58;;;29.40;;
56043;SDS011;41912;51.022;3.664;2024-03-06T08:57:31;59.75;;;30.42;;
56043;SDS011;41912;51.022;3.664;2024-03-06T08:59:57;59.75;;;30.33;;
56043;SDS011;41912;51.022;3.664;2024-03-06T09:02:23;61.53;;;31.15;;
56043;SDS011;41912;51.022;3.664;2024-03-06T09:04:50;63.10;;;30.83;;
56043;SDS011;41912;51.022;3.664;2024-03-06T09:07:17;62.35;;;30.55;;
56043;SDS011;41912;51.022;3.664;2024-03-06T09:09:43;64.20;;;30.88;;
56043;SDS011;41912;51.022;3.664;2024-03-06T09:12:09;62.38;;;32.03;;
56043;SDS011;41912;51.022;3.664;2024-03-06T09:14:36;62.03;;;30.35;;
56043;SDS011;41912;51.022;3.664;2024-03-06T09:17:03;58.35;;;31.67;;
56043;SDS011;41912;51.022;3.664;2024-03-06T09:19:29;64.05;;;31.73;;
56043;SDS011;41912;51.022;3.664;2024-03-06T09:21:55;63.78;;;31.08;;
56043;SDS011;41912;51.022;3.664;2024-03-06T09:24:22;60.67;;;31.27;;
56043;SDS011;41912;51.022;3.664;2024-03-06T09:26:49;61.42;;;31.05;;
56043;SDS011;41912;51.022;3.664;2024-03-06T09:29:16;55.53;;;30.30;;
56043;SDS011;41912;51.022;3.664;2024-03-06T09:31:42;58.03;;;29.92;;
56043;SDS011;41912;51.022;3.664;2024-03-06T09:34:08;56.25;;;30.70;;
56043;SDS011;41912;51.022;3.664;2024-03-06T09:36:37;58.88;;;30.23;;
56043;SDS011;41912;51.022;3.664;2024-03-06T09:39:03;64.97;;;32.88;;
56043;SDS011;41912;51.022;3.664;2024-03-06T09:41:33;65.28;;;32.70;;
56043;SDS011;41912;51.022;3.664;2024-03-06T09:43:59;54.30;;;29.83;;
56043;SDS011;41912;51.022;3.664;2024-03-06T09:46:26;60.22;;;31.23;;
56043;SDS011;41912;51.022;3.664;2024-03-06T09:48:54;62.55;;;30.90;;
56043;SDS011;41912;51.022;3.664;2024-03-06T09:51:20;53.05;;;29.92;;
56043;SDS011;41912;51.022;3.664;2024-03-06T09:53:47;69.32;;;30.75;;
56043;SDS011;41912;51.022;3.664;2024-03-06T09:56:16;57.97;;;30.17;;
56043;SDS011;41912;51.022;3.664;2024-03-06T09:58:44;54.88;;;29.23;;
56043;SDS011;41912;51.022;3.664;2024-03-06T10:01:10;57.63;;;29.65;;
56043;SDS011;41912;51.022;3.664;2024-03-06T10:03:38;52.75;;;29.05;;
56043;SDS011;41912;51.022;3.664;2024-03-06T10:06:05;56.08;;;30.25;;
56043;SDS011;41912;51.022;3.664;2024-03-06T10:08:32;57.92;;;30.05;;
56043;SDS011;41912;51.022;3.664;2024-03-06T10:10:58;55.22;;;29.63;;
56043;SDS011;41912;51.022;3.664;2024-03-06T10:13:25;52.47;;;27.67;;
56043;SDS011;41912;51.022;3.664;2024-03-06T10:15:56;54.03;;;28.15;;
56043;SDS011;41912;51.022;3.664;2024-03-06T10:18:26;53.28;;;29.33;;
56043;SDS011;41912;51.022;3.664;2024-03-06T10:20:53;52.03;;;28.15;;
56043;SDS011;41912;51.022;3.664;2024-03-06T10:23:19;48.50;;;28.00;;
56043;SDS011;41912;51.022;3.664;2024-03-06T10:25:46;47.65;;;27.08;;
56043;SDS011;41912;51.022;3.664;2024-03-06T10:28:17;46.25;;;26.95;;
56043;SDS011;41912;51.022;3.664;2024-03-06T10:30:43;49.95;;;26.15;;
56043;SDS011;41912;51.022;3.664;2024-03-06T10:33:14;44.95;;;26.33;;
56043;SDS011;41912;51.022;3.664;2024-03-06T10:35:41;47.03;;;27.65;;
56043;SDS011;41912;51.022;3.664;2024-03-06T10:38:08;42.08;;;24.80;;
56043;SDS011;41912;51.022;3.664;2024-03-06T10:40:37;42.05;;;25.38;;
56043;SDS011;41912;51.022;3.664;2024-03-06T10:43:05;38.95;;;23.33;;
56043;SDS011;41912;51.022;3.664;2024-03-06T10:45:34;44.42;;;25.15;;
56043;SDS011;41912;51.022;3.664;2024-03-06T10:48:08;39.35;;;22.80;;
56043;SDS011;41912;51.022;3.664;2024-03-06T10:50:41;39.47;;;23.60;;
56043;SDS011;41912;51.022;3.664;2024-03-06T10:53:14;42.70;;;23.65;;
56043;SDS011;41912;51.022;3.664;2024-03-06T10:55:42;44.00;;;24.20;;
56043;SDS011;41912;51.022;3.664;2024-03-06T10:58:11;33.58;;;20.58;;
56043;SDS011;41912;51.022;3.664;2024-03-06T11:00:39;33.25;;;18.40;;
56043;SDS011;41912;51.022;3.664;2024-03-06T11:03:11;28.15;;;16.23;;
56043;SDS011;41912;51.022;3.664;2024-03-06T11:05:40;26.33;;;16.23;;
56043;SDS011;41912;51.022;3.664;2024-03-06T11:08:14;24.75;;;14.05;;
56043;SDS011;41912;51.022;3.664;2024-03-06T11:10:42;19.35;;;12.32;;
56043;SDS011;41912;51.022;3.664;2024-03-06T11:13:08;17.10;;;12.43;;
56043;SDS011;41912;51.022;3.664;2024-03-06T11:23:28;20.38;;;12.48;;
56043;SDS011;41912;51.022;3.664;2024-03-06T11:26:04;22.20;;;12.25;;
56043;SDS011;41912;51.022;3.664;2024-03-06T11:28:35;17.88;;;11.38;;
56043;SDS011;41912;51.022;3.664;2024-03-06T11:31:06;19.73;;;12.15;;
56043;SDS011;41912;51.022;3.664;2024-03-06T11:36:29;17.27;;;10.68;;
56043;SDS011;41912;51.022;3.664;2024-03-06T11:41:24;20.95;;;11.38;;
56043;SDS011;41912;51.022;3.664;2024-03-06T11:43:57;16.38;;;9.48;;
56043;SDS011;41912;51.022;3.664;2024-03-06T11:46:44;18.63;;;9.45;;
56043;SDS011;41912;51.022;3.664;2024-03-06T11:49:23;15.07;;;8.18;;
56043;SDS011;41912;51.022;3.664;2024-03-06T11:51:54;14.40;;;8.68;;
56043;SDS011;41912;51.022;3.664;2024-03-06T11:54:20;15.63;;;8.82;;
56043;SDS011;41912;51.022;3.664;2024-03-06T11:56:53;15.23;;;8.90;;
56043;SDS011;41912;51.022;3.664;2024-03-06T12:01:52;15.65;;;8.75;;
56043;SDS011;41912;51.022;3.664;2024-03-06T12:04:19;14.57;;;8.75;;
56043;SDS011;41912;51.022;3.664;2024-03-06T12:06:46;14.68;;;8.70;;
56043;SDS011;41912;51.022;3.664;2024-03-06T12:09:11;13.77;;;9.07;;
56043;SDS011;41912;51.022;3.664;2024-03-06T12:11:37;16.08;;;9.00;;
56043;SDS011;41912;51.022;3.664;2024-03-06T12:14:03;13.93;;;8.63;;
56043;SDS011;41912;51.022;3.664;2024-03-06T12:16:30;14.55;;;8.27;;
56043;SDS011;41912;51.022;3.664;2024-03-06T12:18:56;17.48;;;9.00;;
56043;SDS011;41912;51.022;3.664;2024-03-06T12:21:31;12.88;;;8.80;;
56043;SDS011;41912;51.022;3.664;2024-03-06T12:24:07;15.02;;;9.02;;
56043;SDS011;41912;51.022;3.664;2024-03-06T12:26:34;13.88;;;8.90;;
56043;SDS011;41912;51.022;3.664;2024-03-06T12:29:07;16.52;;;8.13;;
56043;SDS011;41912;51.022;3.664;2024-03-06T12:31:35;13.80;;;8.88;;
56043;SDS011;41912;51.022;3.664;2024-03-06T12:34:02;14.13;;;8.50;;
56043;SDS011;41912;51.022;3.664;2024-03-06T12:36:29;14.23;;;9.20;;
56043;SDS011;41912;51.022;3.664;2024-03-06T12:38:56;16.67;;;9.02;;
56043;SDS011;41912;51.022;3.664;2024-03-06T12:41:24;15.48;;;8.95;;
56043;SDS011;41912;51.022;3.664;2024-03-06T12:43:51;11.68;;;8.48;;
56043;SDS011;41912;51.022;3.664;2024-03-06T12:46:17;12.40;;;8.35;;
56043;SDS011;41912;51.022;3.664;2024-03-06T12:48:43;14.63;;;8.23;;
56043;SDS011;41912;51.022;3.664;2024-03-06T12:51:09;11.82;;;7.15;;
56043;SDS011;41912;51.022;3.664;2024-03-06T12:53:37;12.38;;;7.38;;
56043;SDS011;41912;51.022;3.664;2024-03-06T12:56:02;12.32;;;7.18;;
56043;SDS011;41912;51.022;3.664;2024-03-06T12:58:29;15.80;;;6.72;;
56043;SDS011;41912;51.022;3.664;2024-03-06T13:00:56;13.73;;;6.50;;
56043;SDS011;41912;51.022;3.664;2024-03-06T13:03:22;15.07;;;7.13;;
56043;SDS011;41912;51.022;3.664;2024-03-06T13:05:48;9.35;;;5.55;;
56043;SDS011;41912;51.022;3.664;2024-03-06T13:08:14;10.07;;;5.75;;
56043;SDS011;41912;51.022;3.664;2024-03-06T13:10:41;10.40;;;5.47;;
56043;SDS011;41912;51.022;3.664;2024-03-06T13:13:07;10.95;;;5.95;;
56043;SDS011;41912;51.022;3.664;2024-03-06T13:15:33;12.30;;;6.32;;
56043;SDS011;41912;51.022;3.664;2024-03-06T13:17:59;13.30;;;5.80;;
56043;SDS011;41912;51.022;3.664;2024-03-06T13:20:32;10.38;;;6.18;;
56043;SDS011;41912;51.022;3.664;2024-03-06T13:22:58;14.55;;;6.05;;
56043;SDS011;41912;51.022;3.664;2024-03-06T13:25:24;15.10;;;6.22;;
56043;SDS011;41912;51.022;3.664;2024-03-06T13:27:50;14.13;;;6.28;;
56043;SDS011;41912;51.022;3.664;2024-03-06T13:30:17;9.63;;;6.07;;
56043;SDS011;41912;51.022;3.664;2024-03-06T13:32:43;11.88;;;6.05;;
56043;SDS011;41912;51.022;3.664;2024-03-06T13:35:10;8.43;;;5.75;;
56043;SDS011;41912;51.022;3.664;2024-03-06T13:37:40;16.05;;;5.82;;
56043;SDS011;41912;51.022;3.664;2024-03-06T13:40:06;11.40;;;5.47;;
56043;SDS011;41912;51.022;3.664;2024-03-06T13:42:34;6.10;;;3.53;;
56043;SDS011;41912;51.022;3.664;2024-03-06T13:45:00;10.13;;;3.72;;
56043;SDS011;41912;51.022;3.664;2024-03-06T13:47:26;6.88;;;3.03;;
56043;SDS011;41912;51.022;3.664;2024-03-06T13:49:52;6.93;;;2.63;;
56043;SDS011;41912;51.022;3.664;2024-03-06T13:52:17;4.50;;;2.47;;
56043;SDS011;41912;51.022;3.664;2024-03-06T13:54:46;11.15;;;3.05;;
56043;SDS011;41912;51.022;3.664;2024-03-06T13:57:15;7.15;;;2.58;;
56043;SDS011;41912;51.022;3.664;2024-03-06T13:59:41;8.35;;;3.15;;
56043;SDS011;41912;51.022;3.664;2024-03-06T14:02:07;4.88;;;2.55;;
56043;SDS011;41912;51.022;3.664;2024-03-06T14:04:33;9.30;;;2.88;;
56043;SDS011;41912;51.022;3.664;2024-03-06T14:06:59;9.63;;;3.10;;
56043;SDS011;41912;51.022;3.664;2024-03-06T14:09:25;8.65;;;3.03;;
56043;SDS011;41912;51.022;3.664;2024-03-06T14:11:52;9.40;;;3.40;;
56043;SDS011;41912;51.022;3.664;2024-03-06T14:14:21;8.98;;;3.65;;
56043;SDS011;41912;51.022;3.664;2024-03-06T14:16:46;11.00;;;3.42;;
56043;SDS011;41912;51.022;3.664;2024-03-06T14:19:12;9.63;;;4.28;;
56043;SDS011;41912;51.022;3.664;2024-03-06T14:21:38;8.68;;;3.80;;
56043;SDS011;41912;51.022;3.664;2024-03-06T14:24:04;7.75;;;3.03;;
56043;SDS011;41912;51.022;3.664;2024-03-06T14:26:31;5.13;;;2.65;;
56043;SDS011;41912;51.022;3.664;2024-03-06T14:29:00;5.28;;;2.05;;
56043;SDS011;41912;51.022;3.664;2024-03-06T14:31:31;4.47;;;2.53;;
56043;SDS011;41912;51.022;3.664;2024-03-06T14:33:57;5.22;;;1.90;;
56043;SDS011;41912;51.022;3.664;2024-03-06T14:36:22;7.68;;;2.47;;
56043;SDS011;41912;51.022;3.664;2024-03-06T14:38:50;9.45;;;2.10;;
56043;SDS011;41912;51.022;3.664;2024-03-06T14:41:17;5.03;;;1.60;;
56043;SDS011;41912;51.022;3.664;2024-03-06T14:43:44;4.30;;;1.95;;
56043;SDS011;41912;51.022;3.664;2024-03-06T14:46:10;5.53;;;2.13;;
56043;SDS011;41912;51.022;3.664;2024-03-06T14:48:37;3.00;;;1.77;;